x

Fripp Nearshore (frp 2) (41033) Weather Station

6:08am - Fri 23rd Feb 2018 All times are EST. -5 hours from GMT.

  • Wind
    4mph, 7mph gusts
  • Sea Temp 61°f
  • Air Temp 59°f
  • Sea Pressure 1029.2mb
  • Fripp Nearshore (frp 2)
  • Fripp Nearshore (frp 2)

More Historic Weather Station data

Upgrade to MSW Pro to gain access to the past 30 days of data for over 8000 Wavebouys and Weather Stations around the globe.

Join

Comparision Forecast

View Surf forecast
   
Fri 02/23 6:08am 4 7 mph 1029.2mb 61f 59f
5:08am 4 9 mph 1028mb 61f 59f
4:08am 7 9 mph 1028.3mb 60f 59f
3:08am 4 9 mph 1028.8mb 60f 59f
2:08am 4 7 mph 1028.6mb 60f 60f
1:08am 4 7 mph 1028.7mb 60f 59f
12:08am 7 9 mph 1029.7mb 61f 60f
Thu 02/22 11:08pm 7 9 mph 1029.7mb 62f 60f
10:08pm 11 13 mph 1029.6mb 63f 62f
9:08pm 7 11 mph 1028.9mb 63f 62f
8:08pm 4 9 mph 1029.8mb 62f 61f
7:08pm 4 7 mph 1028.8mb 64f 61f
6:08pm 4 7 mph 1029.9mb 62f 62f
5:08pm 4 7 mph 1029.3mb 61f 64f
4:08pm 7 9 mph 1029mb 61f 64f
3:08pm 2 7 mph 1029.7mb 62f 66f
2:08pm 4 7 mph 1030.7mb 60f 65f
1:08pm 4 7 mph 1031mb 61f 67f
12:08pm 4 7 mph 1031.7mb 61f 66f
11:08am 4 7 mph 1031.6mb 60f 65f
10:08am 4 7 mph 1031.4mb 60f 63f
9:08am 4 7 mph 1031.9mb 60f 61f
8:08am 4 7 mph 1031.3mb 60f 59f
7:08am 2 4 mph 1030.9mb 60f 58f
6:08am 4 7 mph 1030mb 60f 58f
5:08am 2 4 mph 1028.9mb 60f 59f
4:08am 4 7 mph 1029mb 59f 59f
3:08am 4 9 mph 1029.6mb 59f 60f
2:08am 7 9 mph 1029.7mb 59f 60f
1:08am 9 11 mph 1028.9mb 59f 60f
12:08am 7 11 mph 1030mb 60f 60f
Wed 02/21 11:08pm 7 9 mph 1030.2mb 61f 60f
10:08pm 7 9 mph 1029.7mb 61f 60f
9:08pm 9 13 mph 1029mb 60f 61f
8:08pm 9 11 mph 1029.6mb 60f 62f
7:08pm 9 13 mph 1030.1mb 62f 62f
6:08pm 7 11 mph 1029.7mb 62f 63f
5:08pm 7 9 mph 1029.1mb 61f 64f
4:08pm 4 7 mph 1029.3mb 60f 65f
3:08pm 4 7 mph 1029.2mb 60f 65f
2:08pm 4 7 mph 1029.4mb 60f 64f
1:08pm 4 7 mph 1030.2mb 59f 64f
12:08pm 4 7 mph 1031.5mb 59f 64f
11:08am 4 9 mph 1031.2mb 60f 64f
10:08am 4 7 mph 1031.2mb 59f 63f
9:08am 4 7 mph 1030.5mb 59f 62f
8:08am 7 9 mph 1030.4mb 59f 60f
7:08am 7 9 mph 1030.2mb 59f 58f
6:08am 4 7 mph 1029.6mb 59f 59f
5:08am 4 9 mph 1029.3mb 59f 59f
4:08am 4 7 mph 1028.8mb 59f 59f
3:08am 7 11 mph 1029.1mb 59f 60f
2:08am 9 11 mph 1029.7mb 59f 60f
1:08am 7 9 mph 1029.1mb 58f 59f
12:08am 7 9 mph 1029.4mb 58f 59f
Tue 02/20 11:08pm 7 11 mph 1029.2mb 59f 59f
10:08pm 7 11 mph 1030.3mb 60f 60f
9:08pm 7 9 mph 1029.9mb 60f 60f
8:08pm 7 9 mph 1029mb 59f 60f
7:08pm 7 9 mph 1028.7mb 60f 61f
6:08pm 7 9 mph 1028.2mb 60f 61f
5:08pm 7 9 mph 1028.9mb 62f 63f
4:08pm 4 7 mph 1028.3mb 61f 65f
3:08pm 4 7 mph 1027.7mb 60f 66f
2:08pm 4 7 mph 1028.1mb 59f 65f
1:08pm 4 7 mph 1029.3mb 58f 67f
12:08pm 4 7 mph 1029.9mb 58f 62f
11:08am 2 7 mph 1029.9mb 58f 63f
10:08am 4 7 mph 1030.1mb 58f 61f
9:08am 4 7 mph 1029.6mb 58f 60f
8:08am 7 9 mph 1029.3mb 58f 58f
7:08am 22
mph
1030mb 58f 57f
6:08am 16
mph
1028.3mb 59f 58f
5:08am 11
mph
1027.6mb 59f 57f
4:08am 9
mph
1027.2mb 59f 58f
3:08am 7
mph
1027.1mb 58f 58f
2:08am 9
mph
1027.8mb 58f 58f
1:08am 13
mph
1027.8mb 58f 58f
Mon 02/19 11:08pm 13
mph
1027.2mb 58f 58f
9:08pm 7 9 mph 1027.9mb 58f 58f
8:08pm 7 9 mph 1026.9mb 59f 58f
7:08pm 9 11 mph 1026.3mb 59f 58f
6:08pm 7 9 mph 1026.4mb 59f 59f
5:08pm 7 9 mph 1026.1mb 60f 63f
4:08pm 4 7 mph 1026.5mb 60f 64f
3:08pm 7 9 mph 1026.7mb 62f 62f
2:08pm 7 9 mph 1027.2mb 59f 60f
1:08pm 7 9 mph 1027.6mb 58f 60f